CheckWX is a tool to help pilots better visualize weather data.  It is not intended as a substitute for an official pre-flight weather briefing.

07:06:35 UTC

KLAX TAF
Los Angeles International Airport
Los Angeles, California, USA
KLAX 150606Z 1506/1612 VRB03KT P6SM SCT015 BKN150 BKN200 FM150900 VRB03KT 5SM BR BKN015 OVC025 FM151500 VRB03KT 6SM HZ BKN020 BKN200 FM152000 26010KT P6SM SCT025 BKN200 FM160400 VRB03KT 5SM HZ SKC

Nov-15@
06:00 UTC

Nov-15 @ 06:00 UTC

Nov-15@
09:00 UTC

Nov-15 @ 09:00 UTC

KLAX 150606Z 1506/1612 VRB03KT P6SM SCT015 BKN150 BKN200
Wind
  • Variable at 3 KTS
Cloud Levels
  • Scattered at 1,500' AGL
  • Broken at 15,000' AGL
  • Broken at 20,000' AGL

Nov-15@
09:00 UTC

Nov-15 @ 09:00 UTC

Nov-15@
15:00 UTC

Nov-15 @ 15:00 UTC

FM150900 VRB03KT 5SM BR BKN015 OVC025

From

From Standard forecast or significant change

Wind
  • Variable at 3 KTS
Conditions
Mist
Cloud Levels
  • Broken at 1,500' AGL
  • Overcast at 2,500' AGL

Nov-15@
15:00 UTC

Nov-15 @ 15:00 UTC

Nov-15@
20:00 UTC

Nov-15 @ 20:00 UTC

FM151500 VRB03KT 6SM HZ BKN020 BKN200

From

From Standard forecast or significant change

Wind
  • Variable at 3 KTS
Conditions
Haze
Cloud Levels
  • Broken at 2,000' AGL
  • Broken at 20,000' AGL

Nov-15@
20:00 UTC

Nov-15 @ 20:00 UTC

Nov-16@
04:00 UTC

Nov-16 @ 04:00 UTC

FM152000 26010KT P6SM SCT025 BKN200

From

From Standard forecast or significant change

Wind
  • 260° at 10 KTS
Cloud Levels
  • Scattered at 2,500' AGL
  • Broken at 20,000' AGL

Nov-16@
04:00 UTC

Nov-16 @ 04:00 UTC

Nov-16@
12:00 UTC

Nov-16 @ 12:00 UTC

FM160400 VRB03KT 5SM HZ SKC

From

From Standard forecast or significant change

Wind
  • Variable at 3 KTS
Conditions
Haze
Cloud Levels
  • Clear skies